Time;durP1;ratioP1;P1;durP2;ratioP2;P2;SDS_P1;SDS_P2;PMS_P1;PMS_P2;Temp;Humidity;BMP_temperature;BMP_pressure;BME280_temperature;BME280_humidity;BME280_pressure;Samples;Min_cycle;Max_cycle;Signal;HPM_P1;HPM_P2
2022/09/15 00:00:01;;;;;;;11.48;7.55;;;;;;;;;;5069528;28;20039;-70
2022/09/15 00:02:28;;;;;;;8.10;5.28;;;;;;;;;;5068215;28;20344;-69
2022/09/15 00:04:54;;;;;;;9.00;5.60;;;;;;;;;;5082734;28;20539;-70
2022/09/15 00:07:20;;;;;;;7.82;4.75;;;;;;;;;;5086975;28;20068;-70
2022/09/15 00:09:46;;;;;;;8.77;5.07;;;;;;;;;;5070221;28;20045;-70
2022/09/15 00:12:12;;;;;;;8.43;5.53;;;;;;;;;;5048596;28;20048;-70
2022/09/15 00:14:39;;;;;;;8.48;4.57;;;;;;;;;;5073464;28;20060;-70
2022/09/15 00:17:05;;;;;;;7.85;5.28;;;;;;;;;;5069795;28;20040;-70
2022/09/15 00:19:31;;;;;;;8.20;6.25;;;;;;;;;;5071004;28;20198;-70
2022/09/15 00:21:57;;;;;;;11.73;5.03;;;;;;;;;;5069119;28;20115;-70
2022/09/15 00:24:23;;;;;;;8.10;5.35;;;;;;;;;;5085099;28;20062;-70
2022/09/15 00:26:49;;;;;;;8.32;4.88;;;;;;;;;;5046756;28;20041;-70
2022/09/15 00:29:15;;;;;;;8.80;5.05;;;;;;;;;;5085669;28;20064;-70
2022/09/15 00:31:42;;;;;;;7.63;5.53;;;;;;;;;;5051950;28;20045;-70
2022/09/15 00:34:11;;;;;;;7.78;5.03;;;;;;;;;;5069318;28;20055;-70
2022/09/15 00:36:37;;;;;;;7.25;4.95;;;;;;;;;;5070786;28;20064;-70
2022/09/15 00:39:03;;;;;;;9.07;5.40;;;;;;;;;;5069749;28;20123;-70
2022/09/15 00:41:29;;;;;;;7.97;5.50;;;;;;;;;;5070967;28;20072;-70
2022/09/15 00:43:56;;;;;;;7.30;5.03;;;;;;;;;;5068950;28;20040;-70
2022/09/15 00:46:27;;;;;;;9.13;5.57;;;;;;;;;;5048027;28;20588;-70
2022/09/15 00:48:56;;;;;;;11.25;6.07;;;;;;;;;;5069702;28;20066;-70
2022/09/15 00:51:26;;;;;;;9.27;5.78;;;;;;;;;;5066055;28;20040;-70
2022/09/15 00:53:53;;;;;;;12.57;6.38;;;;;;;;;;5065337;28;20056;-70
2022/09/15 00:56:19;;;;;;;10.02;6.43;;;;;;;;;;5053563;28;20036;-70
2022/09/15 00:58:48;;;;;;;11.35;5.85;;;;;;;;;;5063990;28;20052;-69
2022/09/15 01:01:15;;;;;;;9.15;5.90;;;;;;;;;;5066448;28;21251;-70
2022/09/15 01:03:42;;;;;;;6.88;5.30;;;;;;;;;;5068662;28;20071;-70
2022/09/15 01:06:13;;;;;;;8.65;6.40;;;;;;;;;;5069960;28;20108;-70
2022/09/15 01:08:50;;;;;;;7.88;5.13;;;;;;;;;;5072312;28;20322;-70
2022/09/15 01:11:16;;;;;;;5.97;4.10;;;;;;;;;;5068247;28;20332;-70
2022/09/15 01:13:43;;;;;;;5.70;4.68;;;;;;;;;;5069164;28;20050;-70
2022/09/15 01:16:28;;;;;;;8.25;5.53;;;;;;;;;;5067401;28;20037;-70
2022/09/15 01:18:57;;;;;;;6.32;4.05;;;;;;;;;;5069020;28;20059;-70
2022/09/15 01:21:33;;;;;;;7.70;4.18;;;;;;;;;;5066098;28;20083;-70
2022/09/15 01:24:08;;;;;;;5.97;4.47;;;;;;;;;;5071550;28;20045;-70
2022/09/15 01:26:52;;;;;;;7.45;4.50;;;;;;;;;;5070836;28;20046;-71
2022/09/15 01:29:18;;;;;;;5.15;3.83;;;;;;;;;;5062392;28;20048;-70
2022/09/15 01:34:36;;;;;;;5.28;4.20;;;;;;;;;;5071421;28;20059;-70
2022/09/15 01:37:05;;;;;;;11.18;4.18;;;;;;;;;;5069578;28;20044;-70
2022/09/15 01:39:37;;;;;;;5.72;4.28;;;;;;;;;;5062802;28;20051;-70
2022/09/15 01:42:05;;;;;;;7.28;4.63;;;;;;;;;;5062882;28;20159;-70
2022/09/15 01:44:34;;;;;;;9.32;4.30;;;;;;;;;;5062494;28;20052;-70
2022/09/15 01:47:04;;;;;;;7.40;4.22;;;;;;;;;;5070049;28;20079;-70
2022/09/15 01:49:33;;;;;;;6.55;4.80;;;;;;;;;;5066529;28;20037;-70
2022/09/15 01:51:59;;;;;;;7.57;4.78;;;;;;;;;;5064907;28;20130;-70
2022/09/15 01:54:31;;;;;;;10.40;5.70;;;;;;;;;;5065295;28;20506;-70
2022/09/15 01:56:58;;;;;;;7.60;5.13;;;;;;;;;;5064518;28;20114;-70
2022/09/15 01:59:24;;;;;;;8.48;4.95;;;;;;;;;;5064952;28;20493;-70
2022/09/15 02:01:53;;;;;;;8.05;4.97;;;;;;;;;;5062910;28;20041;-70
2022/09/15 02:04:20;;;;;;;10.27;6.32;;;;;;;;;;5080607;28;20044;-70
2022/09/15 02:06:55;;;;;;;6.68;4.43;;;;;;;;;;5065851;28;20583;-70
2022/09/15 02:09:24;;;;;;;7.90;4.95;;;;;;;;;;5065376;28;20590;-70
2022/09/15 02:12:11;;;;;;;7.78;5.78;;;;;;;;;;5065257;28;20203;-70
2022/09/15 02:14:47;;;;;;;9.85;5.75;;;;;;;;;;5063529;28;20041;-70
2022/09/15 02:17:15;;;;;;;10.25;4.95;;;;;;;;;;5065839;28;20041;-70
2022/09/15 02:19:45;;;;;;;9.15;4.93;;;;;;;;;;5063011;28;20125;-70
2022/09/15 02:22:21;;;;;;;8.73;4.93;;;;;;;;;;5057417;28;20103;-70
2022/09/15 02:24:50;;;;;;;7.35;5.13;;;;;;;;;;5058911;28;20114;-71
2022/09/15 02:27:21;;;;;;;6.72;4.47;;;;;;;;;;5042402;28;21095;-69
2022/09/15 02:29:47;;;;;;;8.80;4.67;;;;;;;;;;5056356;28;20189;-70
2022/09/15 02:32:16;;;;;;;7.65;4.65;;;;;;;;;;5041093;28;20069;-69
2022/09/15 02:34:44;;;;;;;8.02;4.32;;;;;;;;;;5040353;28;20048;-69
2022/09/15 02:37:10;;;;;;;8.13;4.18;;;;;;;;;;5043811;28;20049;-69
2022/09/15 02:39:39;;;;;;;6.30;4.15;;;;;;;;;;5047247;28;20069;-69
2022/09/15 02:42:05;;;;;;;6.68;4.22;;;;;;;;;;5056891;28;20045;-69
2022/09/15 02:44:31;;;;;;;7.55;4.40;;;;;;;;;;5060391;28;20044;-70
2022/09/15 02:46:59;;;;;;;8.25;4.53;;;;;;;;;;5055516;28;20579;-70
2022/09/15 02:49:25;;;;;;;8.77;4.05;;;;;;;;;;5060526;28;20052;-70
2022/09/15 02:51:51;;;;;;;9.48;4.55;;;;;;;;;;5057723;28;20048;-69
2022/09/15 02:54:17;;;;;;;7.63;4.65;;;;;;;;;;5050336;28;20193;-70
2022/09/15 02:56:44;;;;;;;6.82;3.67;;;;;;;;;;5063616;28;20048;-70
2022/09/15 02:59:10;;;;;;;5.53;3.50;;;;;;;;;;5053376;28;20520;-70
2022/09/15 03:01:37;;;;;;;7.80;4.38;;;;;;;;;;5055661;28;20037;-70
2022/09/15 03:04:04;;;;;;;6.55;3.35;;;;;;;;;;5065008;28;20123;-70
2022/09/15 03:06:33;;;;;;;8.95;4.00;;;;;;;;;;5048489;28;20043;-71
2022/09/15 03:09:00;;;;;;;5.93;4.03;;;;;;;;;;5053469;28;20946;-70
2022/09/15 03:11:27;;;;;;;8.82;3.80;;;;;;;;;;5083434;28;20048;-70
2022/09/15 03:13:54;;;;;;;8.65;3.83;;;;;;;;;;5051997;28;20040;-69
2022/09/15 03:16:21;;;;;;;7.40;3.60;;;;;;;;;;5053345;28;20044;-70
2022/09/15 03:18:47;;;;;;;5.05;3.30;;;;;;;;;;5061506;28;20216;-70
2022/09/15 03:21:17;;;;;;;11.05;5.10;;;;;;;;;;5051635;28;20045;-70
2022/09/15 03:23:44;;;;;;;6.43;3.53;;;;;;;;;;5061499;28;20400;-69
2022/09/15 03:26:10;;;;;;;6.57;3.63;;;;;;;;;;5062675;28;20037;-69
2022/09/15 03:28:37;;;;;;;6.45;3.55;;;;;;;;;;5050154;28;20099;-70
2022/09/15 03:31:04;;;;;;;5.03;2.88;;;;;;;;;;5062224;28;20140;-69
2022/09/15 03:33:30;;;;;;;5.47;3.58;;;;;;;;;;5051456;28;21190;-69
2022/09/15 03:35:57;;;;;;;5.20;3.33;;;;;;;;;;5050768;28;20121;-70
2022/09/15 03:38:23;;;;;;;5.85;3.38;;;;;;;;;;5052651;28;20041;-69
2022/09/15 03:41:16;;;;;;;6.18;3.60;;;;;;;;;;5050939;28;21019;-69
2022/09/15 03:43:42;;;;;;;6.95;3.47;;;;;;;;;;5047642;28;20470;-70
2022/09/15 03:46:10;;;;;;;8.95;3.75;;;;;;;;;;5062527;28;20174;-69
2022/09/15 03:48:37;;;;;;;5.45;3.83;;;;;;;;;;5050194;28;20087;-70
2022/09/15 03:51:04;;;;;;;6.78;3.85;;;;;;;;;;5060920;28;20045;-69
2022/09/15 03:53:33;;;;;;;7.80;3.58;;;;;;;;;;5048914;28;20498;-70
2022/09/15 03:56:17;;;;;;;8.55;3.72;;;;;;;;;;5051952;28;20462;-70
2022/09/15 03:58:43;;;;;;;6.05;3.78;;;;;;;;;;5052915;28;20049;-70
2022/09/15 04:01:11;;;;;;;7.45;4.65;;;;;;;;;;5061973;28;21617;-70
2022/09/15 04:03:37;;;;;;;5.35;3.40;;;;;;;;;;5070227;28;20048;-71
2022/09/15 04:06:03;;;;;;;5.90;5.10;;;;;;;;;;5064237;28;21045;-70
2022/09/15 04:08:29;;;;;;;7.43;4.18;;;;;;;;;;5062189;28;20048;-70
2022/09/15 04:10:56;;;;;;;5.07;4.00;;;;;;;;;;5052607;28;20048;-70
2022/09/15 04:13:22;;;;;;;6.65;4.20;;;;;;;;;;5053059;28;20148;-71
2022/09/15 04:15:56;;;;;;;5.45;3.78;;;;;;;;;;5063003;28;20092;-69
2022/09/15 04:18:23;;;;;;;7.45;4.10;;;;;;;;;;5060742;28;20049;-69
2022/09/15 04:20:49;;;;;;;7.50;3.92;;;;;;;;;;5060724;28;20057;-68
2022/09/15 04:23:15;;;;;;;8.50;4.50;;;;;;;;;;5051929;28;20049;-70
2022/09/15 04:25:41;;;;;;;8.65;4.65;;;;;;;;;;5062689;28;20136;-68
2022/09/15 04:28:07;;;;;;;7.00;4.25;;;;;;;;;;5051096;28;20072;-69
2022/09/15 04:30:35;;;;;;;10.52;4.60;;;;;;;;;;5051950;28;20041;-69
2022/09/15 04:33:02;;;;;;;7.63;4.50;;;;;;;;;;5064110;28;20041;-71
2022/09/15 04:35:28;;;;;;;9.60;4.93;;;;;;;;;;5065844;28;20387;-70
2022/09/15 04:37:54;;;;;;;7.68;4.40;;;;;;;;;;5066065;28;20084;-70
2022/09/15 04:40:20;;;;;;;8.45;4.18;;;;;;;;;;5055731;28;20582;-70
2022/09/15 04:42:46;;;;;;;6.25;4.47;;;;;;;;;;5061765;28;20045;-69
2022/09/15 04:45:12;;;;;;;8.85;4.97;;;;;;;;;;5050799;28;20040;-71
2022/09/15 04:47:39;;;;;;;8.82;5.05;;;;;;;;;;5043560;28;20052;-73
2022/09/15 04:50:05;;;;;;;7.88;4.47;;;;;;;;;;5060022;28;20041;-72
2022/09/15 04:52:36;;;;;;;11.50;6.00;;;;;;;;;;5050520;28;20781;-73
2022/09/15 04:55:02;;;;;;;7.95;5.18;;;;;;;;;;5058632;28;20041;-70
2022/09/15 04:57:28;;;;;;;13.45;5.35;;;;;;;;;;5061610;28;20180;-71
2022/09/15 04:59:56;;;;;;;8.95;5.47;;;;;;;;;;5052041;28;20122;-73
2022/09/15 05:02:23;;;;;;;9.23;6.53;;;;;;;;;;5042473;28;20041;-70
2022/09/15 05:08:08;;;;;;;11.23;6.75;;;;;;;;;;5050664;28;20045;-72
2022/09/15 05:10:34;;;;;;;13.30;6.35;;;;;;;;;;5056856;28;20049;-70
2022/09/15 05:13:00;;;;;;;13.50;7.38;;;;;;;;;;5061323;28;20033;-70
2022/09/15 05:15:26;;;;;;;12.00;8.48;;;;;;;;;;5046346;28;20041;-70
2022/09/15 05:17:52;;;;;;;15.20;7.18;;;;;;;;;;5049914;28;20049;-71
2022/09/15 05:20:18;;;;;;;13.48;6.78;;;;;;;;;;5054260;28;20167;-70
2022/09/15 05:22:46;;;;;;;29.98;7.95;;;;;;;;;;5072501;28;20043;-72
2022/09/15 05:25:12;;;;;;;13.50;7.93;;;;;;;;;;5070917;28;20045;-70
2022/09/15 05:27:38;;;;;;;14.65;8.00;;;;;;;;;;5063767;28;20048;-70
2022/09/15 05:30:05;;;;;;;13.45;8.23;;;;;;;;;;5069135;28;20115;-71
2022/09/15 05:32:31;;;;;;;14.82;7.28;;;;;;;;;;5068773;28;20064;-71
2022/09/15 05:34:57;;;;;;;17.77;8.05;;;;;;;;;;5067724;28;20443;-71
2022/09/15 05:37:23;;;;;;;13.48;8.02;;;;;;;;;;5069158;28;20086;-70
2022/09/15 05:39:49;;;;;;;21.95;7.95;;;;;;;;;;5066038;28;20032;-71
2022/09/15 05:42:15;;;;;;;17.65;8.07;;;;;;;;;;5066699;28;20135;-70
2022/09/15 05:44:41;;;;;;;10.95;5.05;;;;;;;;;;5073093;28;21179;-71
2022/09/15 05:47:07;;;;;;;15.65;8.32;;;;;;;;;;5066143;28;20051;-70
2022/09/15 05:49:34;;;;;;;12.98;8.40;;;;;;;;;;5046961;28;20044;-70
2022/09/15 05:52:00;;;;;;;13.68;7.63;;;;;;;;;;5068414;28;20045;-70
2022/09/15 05:54:26;;;;;;;13.88;7.55;;;;;;;;;;5071733;28;21152;-70
2022/09/15 05:56:52;;;;;;;14.23;7.18;;;;;;;;;;5070634;28;20051;-70
2022/09/15 05:59:18;;;;;;;18.40;7.90;;;;;;;;;;5069915;28;20041;-75
2022/09/15 06:01:44;;;;;;;12.75;8.10;;;;;;;;;;5067112;28;20036;-72
2022/09/15 06:04:11;;;;;;;16.98;7.93;;;;;;;;;;5066710;28;20088;-69
2022/09/15 06:06:37;;;;;;;14.55;8.20;;;;;;;;;;5086096;28;20099;-68
2022/09/15 06:09:04;;;;;;;15.82;7.28;;;;;;;;;;5067767;28;20534;-74
2022/09/15 06:11:34;;;;;;;12.93;6.55;;;;;;;;;;5066659;28;20123;-68
2022/09/15 06:14:02;;;;;;;16.50;8.18;;;;;;;;;;5067523;28;20045;-68
2022/09/15 06:16:30;;;;;;;13.60;7.07;;;;;;;;;;5070823;28;21311;-69
2022/09/15 06:18:58;;;;;;;17.00;7.63;;;;;;;;;;5063309;28;20040;-69
2022/09/15 06:21:25;;;;;;;15.40;7.82;;;;;;;;;;5057145;28;20047;-68
2022/09/15 06:23:52;;;;;;;15.98;7.30;;;;;;;;;;5066914;28;20040;-68
2022/09/15 06:26:19;;;;;;;16.25;7.75;;;;;;;;;;5068731;28;20136;-68
2022/09/15 06:28:49;;;;;;;12.27;7.07;;;;;;;;;;5068774;28;20068;-74
2022/09/15 06:31:15;;;;;;;16.95;8.35;;;;;;;;;;5067438;28;21162;-70
2022/09/15 06:33:46;;;;;;;15.63;9.15;;;;;;;;;;5069688;28;20175;-69
2022/09/15 06:36:12;;;;;;;11.85;6.88;;;;;;;;;;5073900;28;20082;-70
2022/09/15 06:38:39;;;;;;;15.27;7.25;;;;;;;;;;5074687;28;20131;-69
2022/09/15 06:41:06;;;;;;;13.75;7.30;;;;;;;;;;5068798;28;20064;-70
2022/09/15 06:43:33;;;;;;;14.88;6.43;;;;;;;;;;5075100;28;20041;-69
2022/09/15 06:46:09;;;;;;;13.20;7.28;;;;;;;;;;5076534;28;20094;-69
2022/09/15 06:48:36;;;;;;;16.67;7.55;;;;;;;;;;5074117;28;20041;-70
2022/09/15 06:51:03;;;;;;;14.82;6.60;;;;;;;;;;5073527;28;20047;-69
2022/09/15 06:53:33;;;;;;;16.60;6.28;;;;;;;;;;5087815;28;20258;-70
2022/09/15 06:56:10;;;;;;;12.82;7.53;;;;;;;;;;5071022;28;20044;-70
2022/09/15 06:58:37;;;;;;;14.57;7.10;;;;;;;;;;5072024;28;20116;-71
2022/09/15 07:01:04;;;;;;;13.68;6.82;;;;;;;;;;5073226;28;20064;-70
2022/09/15 07:03:31;;;;;;;15.90;8.30;;;;;;;;;;5073722;28;20036;-71
2022/09/15 07:05:57;;;;;;;16.30;7.72;;;;;;;;;;5071131;28;20545;-71
2022/09/15 07:08:23;;;;;;;15.35;7.25;;;;;;;;;;5071285;28;20045;-70
2022/09/15 07:10:49;;;;;;;13.77;7.50;;;;;;;;;;5072089;28;20088;-70
2022/09/15 07:13:15;;;;;;;16.67;8.25;;;;;;;;;;5070180;28;20050;-71
2022/09/15 07:15:48;;;;;;;20.92;9.07;;;;;;;;;;5069853;28;20051;-71
2022/09/15 07:18:14;;;;;;;15.70;7.75;;;;;;;;;;5066238;28;20094;-70
2022/09/15 07:20:40;;;;;;;12.38;6.43;;;;;;;;;;5074952;28;20056;-71
2022/09/15 07:23:06;;;;;;;11.30;7.25;;;;;;;;;;5072499;28;20537;-70
2022/09/15 07:25:33;;;;;;;14.10;7.65;;;;;;;;;;5074002;28;20049;-70
2022/09/15 07:27:59;;;;;;;13.38;9.00;;;;;;;;;;5070383;28;20048;-70
2022/09/15 07:30:25;;;;;;;10.93;7.20;;;;;;;;;;5068925;28;20094;-70
2022/09/15 07:32:51;;;;;;;15.63;7.97;;;;;;;;;;5070239;28;20076;-70
2022/09/15 07:35:18;;;;;;;12.27;7.07;;;;;;;;;;5070966;28;20093;-70
2022/09/15 07:37:44;;;;;;;17.38;7.88;;;;;;;;;;5069893;28;20121;-70
2022/09/15 07:40:10;;;;;;;16.65;7.60;;;;;;;;;;5071119;28;20095;-70
2022/09/15 07:42:36;;;;;;;14.60;7.22;;;;;;;;;;5072755;28;20113;-70
2022/09/15 07:45:03;;;;;;;14.05;6.72;;;;;;;;;;5070505;28;20041;-70
2022/09/15 07:47:29;;;;;;;13.93;6.82;;;;;;;;;;5068551;28;20043;-70
2022/09/15 07:49:55;;;;;;;15.30;6.75;;;;;;;;;;5085942;28;20044;-71
2022/09/15 07:52:21;;;;;;;15.23;6.65;;;;;;;;;;5070775;28;20084;-71
2022/09/15 07:54:47;;;;;;;15.82;7.28;;;;;;;;;;5075256;28;20060;-71
2022/09/15 07:57:13;;;;;;;14.10;7.68;;;;;;;;;;5074690;28;20115;-70
2022/09/15 07:59:40;;;;;;;13.32;6.80;;;;;;;;;;5070406;28;20118;-70
2022/09/15 08:02:14;;;;;;;9.70;4.70;;;;;;;;;;5053368;28;20037;-71
2022/09/15 08:04:41;;;;;;;7.55;4.88;;;;;;;;;;5051870;28;20049;-74
2022/09/15 08:07:07;;;;;;;9.82;5.28;;;;;;;;;;5070139;28;20112;-71
2022/09/15 08:09:33;;;;;;;9.95;5.28;;;;;;;;;;5072299;28;20042;-71
2022/09/15 08:11:59;;;;;;;13.02;5.72;;;;;;;;;;5068249;28;20079;-70
2022/09/15 08:14:25;;;;;;;7.22;4.68;;;;;;;;;;5073665;28;20040;-70
2022/09/15 08:16:51;;;;;;;8.13;3.72;;;;;;;;;;5070461;28;20799;-70
2022/09/15 08:19:19;;;;;;;9.90;5.32;;;;;;;;;;5070094;28;20581;-71
2022/09/15 08:21:45;;;;;;;7.72;4.22;;;;;;;;;;5017681;28;1489022;-70
2022/09/15 08:24:11;;;;;;;7.28;3.58;;;;;;;;;;5070365;28;20040;-70
2022/09/15 08:26:38;;;;;;;5.10;3.47;;;;;;;;;;5075160;28;20051;-70
2022/09/15 08:29:04;;;;;;;6.00;2.90;;;;;;;;;;5074625;28;20036;-70
2022/09/15 08:31:30;;;;;;;8.95;3.25;;;;;;;;;;5074700;28;20095;-72
2022/09/15 08:33:56;;;;;;;6.00;2.58;;;;;;;;;;5073478;28;21147;-70
2022/09/15 08:36:26;;;;;;;5.63;2.72;;;;;;;;;;5073455;28;20052;-71
2022/09/15 08:38:52;;;;;;;6.30;2.42;;;;;;;;;;5074967;28;21186;-71
2022/09/15 08:41:22;;;;;;;7.18;2.50;;;;;;;;;;5070107;28;20576;-70
2022/09/15 08:43:56;;;;;;;3.95;2.20;;;;;;;;;;5070151;28;20041;-71
2022/09/15 08:46:27;;;;;;;7.82;2.45;;;;;;;;;;5056756;28;20040;-71
2022/09/15 08:49:26;;;;;;;3.85;2.50;;;;;;;;;;5067803;28;20108;-70
2022/09/15 08:51:52;;;;;;;5.50;1.80;;;;;;;;;;5027777;28;20041;-71
2022/09/15 08:54:24;;;;;;;6.45;2.22;;;;;;;;;;5071221;28;20076;-70
2022/09/15 08:56:50;;;;;;;;;;;;;;;;;;5073702;28;20056;-70
2022/09/15 08:59:17;;;;;;;3.92;2.10;;;;;;;;;;5076171;28;20337;-70
2022/09/15 09:02:02;;;;;;;5.55;2.00;;;;;;;;;;5075084;28;20076;-71
2022/09/15 09:04:32;;;;;;;5.22;2.30;;;;;;;;;;5073108;28;20660;-70
2022/09/15 09:06:58;;;;;;;4.05;2.45;;;;;;;;;;5072955;28;20045;-70
2022/09/15 09:09:34;;;;;;;4.85;2.05;;;;;;;;;;5074661;28;20032;-72
2022/09/15 09:12:20;;;;;;;8.77;2.53;;;;;;;;;;5075279;28;20037;-71
2022/09/15 09:15:05;;;;;;;5.40;2.38;;;;;;;;;;5066016;28;20044;-71
2022/09/15 09:17:40;;;;;;;7.95;1.80;;;;;;;;;;5073203;28;20055;-70
2022/09/15 09:20:22;;;;;;;5.05;2.00;;;;;;;;;;5088735;28;20045;-70
2022/09/15 09:22:50;;;;;;;2.95;1.30;;;;;;;;;;5070896;28;20900;-70
2022/09/15 09:25:18;;;;;;;5.35;2.40;;;;;;;;;;5068959;28;20230;-71
2022/09/15 09:27:44;;;;;;;5.95;1.73;;;;;;;;;;5069109;28;20133;-71
2022/09/15 09:30:21;;;;;;;4.30;2.15;;;;;;;;;;5070614;28;20045;-70
2022/09/15 09:32:52;;;;;;;4.55;1.80;;;;;;;;;;5069966;28;20133;-71
2022/09/15 09:35:31;;;;;;;8.25;1.90;;;;;;;;;;5070309;28;20522;-70
2022/09/15 09:37:58;;;;;;;7.05;2.50;;;;;;;;;;5072736;28;20049;-70
2022/09/15 09:40:26;;;;;;;4.82;3.05;;;;;;;;;;5070349;28;20040;-71
2022/09/15 09:42:53;;;;;;;5.35;2.35;;;;;;;;;;5087967;28;20048;-71
2022/09/15 09:45:19;;;;;;;4.57;2.10;;;;;;;;;;5072299;28;20041;-70
2022/09/15 09:47:45;;;;;;;12.30;2.17;;;;;;;;;;5069038;28;20624;-71
2022/09/15 09:50:30;;;;;;;7.65;1.98;;;;;;;;;;5069999;28;20040;-71
2022/09/15 09:52:57;;;;;;;4.95;1.88;;;;;;;;;;5070982;28;20496;-71
2022/09/15 09:55:25;;;;;;;5.53;1.50;;;;;;;;;;5071686;28;20058;-71
2022/09/15 09:57:52;;;;;;;6.85;2.20;;;;;;;;;;5063108;28;20590;-71
2022/09/15 10:00:35;;;;;;;6.15;2.13;;;;;;;;;;5068151;28;20052;-71
2022/09/15 10:03:14;;;;;;;3.03;1.60;;;;;;;;;;5069692;28;20702;-70
2022/09/15 10:05:40;;;;;;;3.28;1.80;;;;;;;;;;5068806;28;20764;-70
2022/09/15 10:08:07;;;;;;;4.47;1.83;;;;;;;;;;5070851;28;20032;-71
2022/09/15 10:10:35;;;;;;;5.93;1.38;;;;;;;;;;5050391;28;20149;-71
2022/09/15 10:13:03;;;;;;;3.38;1.45;;;;;;;;;;5075857;28;20510;-71
2022/09/15 10:15:34;;;;;;;2.95;1.33;;;;;;;;;;5075292;28;20049;-71
2022/09/15 10:18:00;;;;;;;4.78;2.38;;;;;;;;;;5072740;28;20078;-71
2022/09/15 10:20:34;;;;;;;5.15;2.13;;;;;;;;;;5069962;28;20045;-71
2022/09/15 10:23:21;;;;;;;2.90;1.70;;;;;;;;;;5070953;28;20033;-71
2022/09/15 10:25:48;;;;;;;3.10;1.60;;;;;;;;;;5070260;28;20779;-71
2022/09/15 10:28:16;;;;;;;6.45;2.10;;;;;;;;;;5071635;28;20040;-72
2022/09/15 10:31:02;;;;;;;7.30;1.77;;;;;;;;;;5070460;28;20043;-71
2022/09/15 10:33:28;;;;;;;4.95;2.25;;;;;;;;;;5081955;28;20525;-71
2022/09/15 10:35:59;;;;;;;5.18;2.17;;;;;;;;;;5062812;28;20068;-72
2022/09/15 10:38:28;;;;;;;4.03;1.83;;;;;;;;;;5067119;28;20033;-71
2022/09/15 10:41:17;;;;;;;3.58;1.92;;;;;;;;;;5070169;28;20044;-72
2022/09/15 10:43:50;;;;;;;4.30;1.70;;;;;;;;;;5058614;28;20311;-71
2022/09/15 10:46:19;;;;;;;4.55;1.80;;;;;;;;;;5066899;28;20056;-71
2022/09/15 10:48:48;;;;;;;5.97;2.30;;;;;;;;;;5067121;28;20106;-71
2022/09/15 10:51:30;;;;;;;4.45;1.70;;;;;;;;;;5069559;28;20064;-71
2022/09/15 10:54:01;;;;;;;5.60;1.70;;;;;;;;;;5064061;28;20096;-70
2022/09/15 10:56:30;;;;;;;4.43;1.42;;;;;;;;;;5066143;28;20151;-71
2022/09/15 10:59:15;;;;;;;3.33;1.85;;;;;;;;;;5069677;28;20052;-70
2022/09/15 11:02:16;;;;;;;6.57;2.20;;;;;;;;;;5069308;28;20533;-71
2022/09/15 11:04:45;;;;;;;7.17;2.03;;;;;;;;;;4984227;28;20409;-71
2022/09/15 11:07:16;;;;;;;4.82;1.63;;;;;;;;;;5039332;28;20275;-70
2022/09/15 11:09:48;;;;;;;3.83;2.17;;;;;;;;;;5068041;28;21249;-70
2022/09/15 11:12:15;;;;;;;;;;;;;;;;;;5065854;28;20044;-70
2022/09/15 11:14:41;;;;;;;2.63;1.88;;;;;;;;;;5072371;28;19920;-70
2022/09/15 11:17:07;;;;;;;6.30;1.73;;;;;;;;;;5051461;28;20781;-70
2022/09/15 11:19:56;;;;;;;4.03;2.20;;;;;;;;;;5070957;28;20126;-70
2022/09/15 11:22:34;;;;;;;4.82;2.38;;;;;;;;;;5070508;28;20529;-70
2022/09/15 11:25:02;;;;;;;8.20;2.40;;;;;;;;;;5061971;28;21829;-71
2022/09/15 11:27:31;;;;;;;5.10;2.80;;;;;;;;;;5067090;28;20048;-71
2022/09/15 11:30:07;;;;;;;3.35;2.08;;;;;;;;;;5087363;28;20580;-70
2022/09/15 11:32:40;;;;;;;3.58;2.20;;;;;;;;;;5069546;28;20045;-70
2022/09/15 11:35:17;;;;;;;8.35;2.22;;;;;;;;;;5069004;28;20041;-70
2022/09/15 11:37:48;;;;;;;7.35;2.60;;;;;;;;;;5086338;28;20510;-71
2022/09/15 11:40:18;;;;;;;9.98;3.13;;;;;;;;;;5064544;28;20091;-70
2022/09/15 11:42:44;;;;;;;4.80;1.90;;;;;;;;;;5070361;28;20045;-70
2022/09/15 11:45:33;;;;;;;4.28;1.95;;;;;;;;;;5046556;28;20536;-70
2022/09/15 11:48:04;;;;;;;5.50;2.03;;;;;;;;;;5053154;28;20060;-70
2022/09/15 11:50:33;;;;;;;3.17;2.22;;;;;;;;;;5047923;28;20553;-71
2022/09/15 11:53:15;;;;;;;5.65;2.08;;;;;;;;;;5068757;28;20052;-71
2022/09/15 11:55:41;;;;;;;6.60;2.38;;;;;;;;;;5070755;28;20051;-71
2022/09/15 11:58:12;;;;;;;6.15;2.58;;;;;;;;;;5062261;28;20045;-71
2022/09/15 12:00:42;;;;;;;4.03;2.50;;;;;;;;;;5065216;28;20033;-70
2022/09/15 12:03:27;;;;;;;3.88;2.20;;;;;;;;;;5090053;28;20106;-71
2022/09/15 12:06:01;;;;;;;4.05;1.67;;;;;;;;;;5052423;28;20068;-72
2022/09/15 12:08:31;;;;;;;3.05;1.92;;;;;;;;;;5074826;28;20272;-71
2022/09/15 12:10:59;;;;;;;2.80;1.77;;;;;;;;;;5071676;28;20048;-71
2022/09/15 12:13:25;;;;;;;5.00;2.47;;;;;;;;;;5075672;28;20040;-72
2022/09/15 12:15:52;;;;;;;5.03;2.20;;;;;;;;;;5074430;28;20044;-71
2022/09/15 12:18:28;;;;;;;7.32;2.35;;;;;;;;;;5071800;28;20044;-71
2022/09/15 12:21:00;;;;;;;9.95;2.35;;;;;;;;;;5073085;28;20136;-70
2022/09/15 12:23:35;;;;;;;5.25;2.05;;;;;;;;;;5074609;28;20037;-70
2022/09/15 12:26:01;;;;;;;3.95;2.47;;;;;;;;;;5074838;28;20044;-71
2022/09/15 12:28:38;;;;;;;9.45;3.03;;;;;;;;;;5071897;28;20052;-71
2022/09/15 12:31:13;;;;;;;7.50;2.30;;;;;;;;;;5075020;28;20041;-72
2022/09/15 12:33:42;;;;;;;8.90;2.08;;;;;;;;;;5073147;28;20285;-71
2022/09/15 12:36:27;;;;;;;5.88;2.03;;;;;;;;;;5067293;28;20037;-71
2022/09/15 12:38:53;;;;;;;3.92;1.90;;;;;;;;;;5068766;28;20132;-71
2022/09/15 12:41:19;;;;;;;3.70;2.22;;;;;;;;;;5075917;28;20060;-71
2022/09/15 12:43:55;;;;;;;4.75;2.72;;;;;;;;;;5074544;28;20041;-71
2022/09/15 12:46:21;;;;;;;6.60;1.95;;;;;;;;;;5054872;28;20041;-71
2022/09/15 12:48:48;;;;;;;5.22;1.92;;;;;;;;;;5071995;28;20144;-72
2022/09/15 12:51:22;;;;;;;3.67;2.17;;;;;;;;;;5075913;28;20047;-72
2022/09/15 12:53:49;;;;;;;7.20;2.83;;;;;;;;;;5072048;28;21523;-72
2022/09/15 12:56:29;;;;;;;6.72;3.45;;;;;;;;;;5049298;28;20053;-71
2022/09/15 12:58:56;;;;;;;7.85;3.45;;;;;;;;;;5073392;28;20462;-71
2022/09/15 13:01:23;;;;;;;5.15;3.10;;;;;;;;;;5073821;28;20036;-71
2022/09/15 13:03:49;;;;;;;6.43;3.55;;;;;;;;;;5073505;28;20075;-71
2022/09/15 13:06:24;;;;;;;9.55;3.67;;;;;;;;;;5074750;28;20053;-71
2022/09/15 13:09:14;;;;;;;8.13;3.33;;;;;;;;;;5074637;28;20052;-72
2022/09/15 13:11:42;;;;;;;5.60;3.20;;;;;;;;;;5075702;28;20045;-73
2022/09/15 13:14:40;;;;;;;5.07;3.45;;;;;;;;;;5073670;28;20670;-73
2022/09/15 13:17:13;;;;;;;7.70;4.00;;;;;;;;;;5000796;28;20775;-74
2022/09/15 13:19:41;;;;;;;7.35;2.90;;;;;;;;;;5064373;28;20059;-71
2022/09/15 13:22:10;;;;;;;11.02;3.15;;;;;;;;;;5064251;28;20144;-71
2022/09/15 13:24:37;;;;;;;10.07;3.78;;;;;;;;;;5065661;28;20566;-71
2022/09/15 13:27:05;;;;;;;10.30;4.63;;;;;;;;;;5066137;28;20038;-70
2022/09/15 13:29:32;;;;;;;7.15;3.67;;;;;;;;;;5062094;28;20560;-72
2022/09/15 13:32:06;;;;;;;5.97;3.17;;;;;;;;;;5061389;28;20876;-71
2022/09/15 13:34:47;;;;;;;11.70;3.10;;;;;;;;;;5064924;28;20052;-69
2022/09/15 13:37:22;;;;;;;7.90;3.25;;;;;;;;;;5043042;28;20068;-77
2022/09/15 13:40:01;;;;;;;6.18;2.80;;;;;;;;;;5034231;28;20052;-78
2022/09/15 13:42:33;;;;;;;7.70;3.33;;;;;;;;;;5065596;28;20052;-79
2022/09/15 13:45:10;;;;;;;10.48;3.33;;;;;;;;;;5033196;28;20084;-76
2022/09/15 13:47:42;;;;;;;6.38;2.95;;;;;;;;;;5032561;28;20049;-73
2022/09/15 13:50:18;;;;;;;4.78;3.13;;;;;;;;;;5062924;28;20045;-74
2022/09/15 13:52:57;;;;;;;3.88;3.08;;;;;;;;;;5064219;28;20539;-70
2022/09/15 13:55:27;;;;;;;5.18;2.53;;;;;;;;;;5042265;28;20087;-70
2022/09/15 13:57:57;;;;;;;5.25;3.25;;;;;;;;;;5064943;28;20041;-71
2022/09/15 14:00:43;;;;;;;3.75;2.72;;;;;;;;;;5039876;28;21312;-70
2022/09/15 14:03:11;;;;;;;8.25;3.75;;;;;;;;;;5014322;28;20049;-70
2022/09/15 14:05:37;;;;;;;4.43;2.63;;;;;;;;;;5030590;28;20045;-70
2022/09/15 14:08:05;;;;;;;4.68;2.60;;;;;;;;;;5064377;28;20045;-75
2022/09/15 14:10:38;;;;;;;5.00;2.97;;;;;;;;;;5061303;28;20609;-73
2022/09/15 14:13:04;;;;;;;8.25;3.17;;;;;;;;;;5058522;28;20050;-70
2022/09/15 14:15:30;;;;;;;5.05;3.03;;;;;;;;;;5061846;28;20033;-71
2022/09/15 14:17:56;;;;;;;9.52;2.50;;;;;;;;;;5032306;28;20510;-71
2022/09/15 14:20:29;;;;;;;5.90;2.67;;;;;;;;;;5061763;28;21513;-72
2022/09/15 14:22:55;;;;;;;3.97;2.58;;;;;;;;;;5085123;28;20594;-70
2022/09/15 14:25:24;;;;;;;6.80;3.33;;;;;;;;;;5069590;28;21259;-70
2022/09/15 14:27:52;;;;;;;7.93;3.10;;;;;;;;;;5069914;28;20048;-70
2022/09/15 14:30:20;;;;;;;5.85;2.88;;;;;;;;;;5070917;28;20528;-70
2022/09/15 14:32:48;;;;;;;5.80;3.55;;;;;;;;;;5071505;28;20132;-71
2022/09/15 14:35:16;;;;;;;5.25;3.33;;;;;;;;;;5071229;28;20037;-71
2022/09/15 14:37:46;;;;;;;7.32;3.10;;;;;;;;;;5071849;28;20510;-71
2022/09/15 14:40:32;;;;;;;5.93;3.90;;;;;;;;;;5068881;28;20227;-70
2022/09/15 14:42:58;;;;;;;6.78;3.70;;;;;;;;;;5070499;28;20051;-71
2022/09/15 14:45:36;;;;;;;4.53;2.95;;;;;;;;;;5069350;28;20048;-71
2022/09/15 14:48:06;;;;;;;6.15;3.15;;;;;;;;;;5069036;28;20128;-71
2022/09/15 14:50:32;;;;;;;7.45;2.90;;;;;;;;;;5064014;28;20057;-77
2022/09/15 14:53:06;;;;;;;5.18;3.40;;;;;;;;;;5072183;28;20072;-70
2022/09/15 14:55:39;;;;;;;5.75;2.90;;;;;;;;;;5089740;28;20521;-70
2022/09/15 14:58:11;;;;;;;6.20;2.90;;;;;;;;;;5074414;28;20054;-70
2022/09/15 15:00:37;;;;;;;;;;;;;;;;;;5067307;28;20048;-70